sensor_id;sensor_type;location;lat;lon;timestamp;P1;durP1;ratioP1;P2;durP2;ratioP2
10414;SDS011;5254;47.696;9.138;2022-07-24T00:02:02;17.75;;;16.15;;
10414;SDS011;5254;47.696;9.138;2022-07-24T00:04:27;14.98;;;13.57;;
10414;SDS011;5254;47.696;9.138;2022-07-24T00:06:53;15.18;;;13.68;;
10414;SDS011;5254;47.696;9.138;2022-07-24T00:09:19;15.05;;;13.55;;
10414;SDS011;5254;47.696;9.138;2022-07-24T00:11:44;19.65;;;16.83;;
10414;SDS011;5254;47.696;9.138;2022-07-24T00:14:10;15.05;;;13.57;;
10414;SDS011;5254;47.696;9.138;2022-07-24T00:16:36;15.57;;;14.07;;
10414;SDS011;5254;47.696;9.138;2022-07-24T00:19:02;15.35;;;13.85;;
10414;SDS011;5254;47.696;9.138;2022-07-24T00:21:28;15.65;;;14.05;;
10414;SDS011;5254;47.696;9.138;2022-07-24T00:23:54;15.15;;;13.65;;
10414;SDS011;5254;47.696;9.138;2022-07-24T00:26:19;18.80;;;16.90;;
10414;SDS011;5254;47.696;9.138;2022-07-24T00:28:45;15.27;;;13.68;;
10414;SDS011;5254;47.696;9.138;2022-07-24T00:31:12;15.07;;;13.57;;
10414;SDS011;5254;47.696;9.138;2022-07-24T00:33:38;15.43;;;14.02;;
10414;SDS011;5254;47.696;9.138;2022-07-24T00:36:04;15.20;;;13.70;;
10414;SDS011;5254;47.696;9.138;2022-07-24T00:38:30;18.10;;;16.25;;
10414;SDS011;5254;47.696;9.138;2022-07-24T00:40:55;15.93;;;14.30;;
10414;SDS011;5254;47.696;9.138;2022-07-24T00:43:21;19.38;;;16.65;;
10414;SDS011;5254;47.696;9.138;2022-07-24T00:45:47;15.30;;;13.80;;
10414;SDS011;5254;47.696;9.138;2022-07-24T00:48:12;16.13;;;14.15;;
10414;SDS011;5254;47.696;9.138;2022-07-24T00:50:38;15.63;;;14.25;;
10414;SDS011;5254;47.696;9.138;2022-07-24T00:53:04;15.73;;;14.20;;
10414;SDS011;5254;47.696;9.138;2022-07-24T00:55:30;16.17;;;14.48;;
10414;SDS011;5254;47.696;9.138;2022-07-24T00:57:58;16.05;;;14.45;;
10414;SDS011;5254;47.696;9.138;2022-07-24T01:00:23;19.00;;;17.00;;
10414;SDS011;5254;47.696;9.138;2022-07-24T01:02:49;16.52;;;14.93;;
10414;SDS011;5254;47.696;9.138;2022-07-24T01:05:16;16.20;;;14.50;;
10414;SDS011;5254;47.696;9.138;2022-07-24T01:07:42;16.38;;;14.95;;
10414;SDS011;5254;47.696;9.138;2022-07-24T01:10:08;18.33;;;16.48;;
10414;SDS011;5254;47.696;9.138;2022-07-24T01:12:35;16.77;;;15.05;;
10414;SDS011;5254;47.696;9.138;2022-07-24T01:15:03;15.52;;;13.60;;
10414;SDS011;5254;47.696;9.138;2022-07-24T01:17:31;14.95;;;13.55;;
10414;SDS011;5254;47.696;9.138;2022-07-24T01:19:58;15.43;;;14.02;;
10414;SDS011;5254;47.696;9.138;2022-07-24T01:22:26;16.05;;;13.55;;
10414;SDS011;5254;47.696;9.138;2022-07-24T01:24:52;14.93;;;13.63;;
10414;SDS011;5254;47.696;9.138;2022-07-24T01:27:19;15.35;;;13.70;;
10414;SDS011;5254;47.696;9.138;2022-07-24T01:29:46;16.25;;;14.65;;
10414;SDS011;5254;47.696;9.138;2022-07-24T01:32:11;18.85;;;16.90;;
10414;SDS011;5254;47.696;9.138;2022-07-24T01:34:37;15.82;;;14.30;;
10414;SDS011;5254;47.696;9.138;2022-07-24T01:37:03;17.88;;;16.13;;
10414;SDS011;5254;47.696;9.138;2022-07-24T01:39:28;15.93;;;14.52;;
10414;SDS011;5254;47.696;9.138;2022-07-24T01:41:54;15.73;;;14.32;;
10414;SDS011;5254;47.696;9.138;2022-07-24T01:44:20;15.02;;;13.55;;
10414;SDS011;5254;47.696;9.138;2022-07-24T01:46:45;19.23;;;16.80;;
10414;SDS011;5254;47.696;9.138;2022-07-24T01:49:11;15.43;;;13.88;;
10414;SDS011;5254;47.696;9.138;2022-07-24T01:51:38;15.73;;;14.15;;
10414;SDS011;5254;47.696;9.138;2022-07-24T01:54:04;15.75;;;14.23;;
10414;SDS011;5254;47.696;9.138;2022-07-24T01:56:30;18.85;;;16.77;;
10414;SDS011;5254;47.696;9.138;2022-07-24T01:58:57;15.10;;;13.55;;
10414;SDS011;5254;47.696;9.138;2022-07-24T02:01:24;14.70;;;13.25;;
10414;SDS011;5254;47.696;9.138;2022-07-24T02:03:50;18.40;;;16.70;;
10414;SDS011;5254;47.696;9.138;2022-07-24T02:06:16;15.45;;;13.95;;
10414;SDS011;5254;47.696;9.138;2022-07-24T02:08:42;15.77;;;14.05;;
10414;SDS011;5254;47.696;9.138;2022-07-24T02:11:07;15.30;;;13.88;;
10414;SDS011;5254;47.696;9.138;2022-07-24T02:13:33;15.57;;;14.05;;
10414;SDS011;5254;47.696;9.138;2022-07-24T02:15:59;18.77;;;16.80;;
10414;SDS011;5254;47.696;9.138;2022-07-24T02:18:25;15.10;;;13.70;;
10414;SDS011;5254;47.696;9.138;2022-07-24T02:20:50;14.93;;;13.52;;
10414;SDS011;5254;47.696;9.138;2022-07-24T02:23:16;15.23;;;13.70;;
10414;SDS011;5254;47.696;9.138;2022-07-24T02:25:45;18.75;;;16.85;;
10414;SDS011;5254;47.696;9.138;2022-07-24T02:28:12;15.80;;;14.38;;
10414;SDS011;5254;47.696;9.138;2022-07-24T02:30:39;16.40;;;14.65;;
10414;SDS011;5254;47.696;9.138;2022-07-24T02:33:05;15.90;;;14.40;;
10414;SDS011;5254;47.696;9.138;2022-07-24T02:35:31;15.73;;;14.30;;
10414;SDS011;5254;47.696;9.138;2022-07-24T02:37:56;16.67;;;15.07;;
10414;SDS011;5254;47.696;9.138;2022-07-24T02:40:22;16.00;;;14.50;;
10414;SDS011;5254;47.696;9.138;2022-07-24T02:42:48;16.15;;;14.75;;
10414;SDS011;5254;47.696;9.138;2022-07-24T02:45:14;17.08;;;15.38;;
10414;SDS011;5254;47.696;9.138;2022-07-24T02:47:52;23.85;;;17.35;;
10414;SDS011;5254;47.696;9.138;2022-07-24T02:50:20;15.90;;;14.25;;
10414;SDS011;5254;47.696;9.138;2022-07-24T02:52:47;15.32;;;13.82;;
10414;SDS011;5254;47.696;9.138;2022-07-24T02:55:14;15.48;;;13.90;;
10414;SDS011;5254;47.696;9.138;2022-07-24T02:57:40;15.38;;;13.90;;
10414;SDS011;5254;47.696;9.138;2022-07-24T03:00:07;16.42;;;14.93;;
10414;SDS011;5254;47.696;9.138;2022-07-24T03:02:34;15.98;;;14.48;;
10414;SDS011;5254;47.696;9.138;2022-07-24T03:05:00;16.30;;;14.68;;
10414;SDS011;5254;47.696;9.138;2022-07-24T03:07:26;19.48;;;17.00;;
10414;SDS011;5254;47.696;9.138;2022-07-24T03:09:53;15.93;;;14.40;;
10414;SDS011;5254;47.696;9.138;2022-07-24T03:12:18;16.00;;;14.27;;
10414;SDS011;5254;47.696;9.138;2022-07-24T03:14:44;15.52;;;13.93;;
10414;SDS011;5254;47.696;9.138;2022-07-24T03:17:10;15.63;;;14.02;;
10414;SDS011;5254;47.696;9.138;2022-07-24T03:19:36;15.35;;;13.85;;
10414;SDS011;5254;47.696;9.138;2022-07-24T03:22:02;14.98;;;13.65;;
10414;SDS011;5254;47.696;9.138;2022-07-24T03:24:28;15.43;;;13.77;;
10414;SDS011;5254;47.696;9.138;2022-07-24T03:26:53;16.83;;;13.73;;
10414;SDS011;5254;47.696;9.138;2022-07-24T03:29:19;16.92;;;14.02;;
10414;SDS011;5254;47.696;9.138;2022-07-24T03:31:45;18.38;;;16.45;;
10414;SDS011;5254;47.696;9.138;2022-07-24T03:34:11;14.90;;;13.50;;
10414;SDS011;5254;47.696;9.138;2022-07-24T03:36:36;15.38;;;13.77;;
10414;SDS011;5254;47.696;9.138;2022-07-24T03:39:03;15.18;;;13.85;;
10414;SDS011;5254;47.696;9.138;2022-07-24T03:41:29;14.68;;;13.27;;
10414;SDS011;5254;47.696;9.138;2022-07-24T03:43:55;15.15;;;13.70;;
10414;SDS011;5254;47.696;9.138;2022-07-24T03:46:21;14.90;;;13.35;;
10414;SDS011;5254;47.696;9.138;2022-07-24T03:48:46;15.05;;;13.55;;
10414;SDS011;5254;47.696;9.138;2022-07-24T03:51:12;14.68;;;13.27;;
10414;SDS011;5254;47.696;9.138;2022-07-24T03:53:37;15.73;;;14.05;;
10414;SDS011;5254;47.696;9.138;2022-07-24T03:56:04;19.08;;;17.02;;
10414;SDS011;5254;47.696;9.138;2022-07-24T03:58:31;15.35;;;13.75;;
10414;SDS011;5254;47.696;9.138;2022-07-24T04:00:57;15.95;;;14.45;;
10414;SDS011;5254;47.696;9.138;2022-07-24T04:03:23;16.73;;;14.93;;
10414;SDS011;5254;47.696;9.138;2022-07-24T04:05:48;15.93;;;14.32;;
10414;SDS011;5254;47.696;9.138;2022-07-24T04:08:14;18.75;;;16.85;;
10414;SDS011;5254;47.696;9.138;2022-07-24T04:10:40;15.90;;;14.30;;
10414;SDS011;5254;47.696;9.138;2022-07-24T04:13:06;17.98;;;14.75;;
10414;SDS011;5254;47.696;9.138;2022-07-24T04:15:31;35.67;;;24.35;;
10414;SDS011;5254;47.696;9.138;2022-07-24T04:17:57;30.88;;;22.58;;
10414;SDS011;5254;47.696;9.138;2022-07-24T04:20:23;91.40;;;49.70;;
10414;SDS011;5254;47.696;9.138;2022-07-24T04:22:48;51.63;;;31.38;;
10414;SDS011;5254;47.696;9.138;2022-07-24T04:25:14;37.75;;;25.67;;
10414;SDS011;5254;47.696;9.138;2022-07-24T04:27:40;19.63;;;17.15;;
10414;SDS011;5254;47.696;9.138;2022-07-24T04:30:05;16.95;;;15.15;;
10414;SDS011;5254;47.696;9.138;2022-07-24T04:32:31;17.75;;;15.85;;
10414;SDS011;5254;47.696;9.138;2022-07-24T04:34:57;20.65;;;18.45;;
10414;SDS011;5254;47.696;9.138;2022-07-24T04:37:23;20.77;;;17.27;;
10414;SDS011;5254;47.696;9.138;2022-07-24T04:39:49;30.73;;;23.85;;
10414;SDS011;5254;47.696;9.138;2022-07-24T04:42:14;25.77;;;21.95;;
10414;SDS011;5254;47.696;9.138;2022-07-24T04:44:40;39.55;;;25.77;;
10414;SDS011;5254;47.696;9.138;2022-07-24T04:47:06;29.95;;;24.52;;
10414;SDS011;5254;47.696;9.138;2022-07-24T04:49:31;97.53;;;54.78;;
10414;SDS011;5254;47.696;9.138;2022-07-24T04:51:57;55.13;;;38.60;;
10414;SDS011;5254;47.696;9.138;2022-07-24T04:54:23;35.50;;;27.67;;
10414;SDS011;5254;47.696;9.138;2022-07-24T04:56:48;24.55;;;19.80;;
10414;SDS011;5254;47.696;9.138;2022-07-24T04:59:14;28.30;;;22.77;;
10414;SDS011;5254;47.696;9.138;2022-07-24T05:01:40;30.58;;;23.10;;
10414;SDS011;5254;47.696;9.138;2022-07-24T05:04:06;26.70;;;21.48;;
10414;SDS011;5254;47.696;9.138;2022-07-24T05:06:32;25.05;;;21.80;;
10414;SDS011;5254;47.696;9.138;2022-07-24T05:08:58;20.30;;;17.95;;
10414;SDS011;5254;47.696;9.138;2022-07-24T05:11:23;18.90;;;16.75;;
10414;SDS011;5254;47.696;9.138;2022-07-24T05:13:49;22.05;;;19.75;;
10414;SDS011;5254;47.696;9.138;2022-07-24T05:16:15;26.23;;;23.42;;
10414;SDS011;5254;47.696;9.138;2022-07-24T05:18:41;28.88;;;24.30;;
10414;SDS011;5254;47.696;9.138;2022-07-24T05:21:06;24.05;;;21.48;;
10414;SDS011;5254;47.696;9.138;2022-07-24T05:23:32;22.17;;;19.98;;
10414;SDS011;5254;47.696;9.138;2022-07-24T05:25:58;22.23;;;18.42;;
10414;SDS011;5254;47.696;9.138;2022-07-24T05:28:24;24.55;;;19.88;;
10414;SDS011;5254;47.696;9.138;2022-07-24T05:30:49;17.75;;;15.98;;
10414;SDS011;5254;47.696;9.138;2022-07-24T05:33:15;16.90;;;15.20;;
10414;SDS011;5254;47.696;9.138;2022-07-24T05:35:41;19.88;;;17.88;;
10414;SDS011;5254;47.696;9.138;2022-07-24T05:38:06;16.95;;;15.35;;
10414;SDS011;5254;47.696;9.138;2022-07-24T05:40:32;16.02;;;14.60;;
10414;SDS011;5254;47.696;9.138;2022-07-24T05:42:58;15.82;;;14.32;;
10414;SDS011;5254;47.696;9.138;2022-07-24T05:45:24;15.85;;;14.30;;
10414;SDS011;5254;47.696;9.138;2022-07-24T05:47:49;19.45;;;17.42;;
10414;SDS011;5254;47.696;9.138;2022-07-24T05:50:15;15.88;;;14.38;;
10414;SDS011;5254;47.696;9.138;2022-07-24T05:52:41;19.30;;;16.83;;
10414;SDS011;5254;47.696;9.138;2022-07-24T05:55:07;15.32;;;13.93;;
10414;SDS011;5254;47.696;9.138;2022-07-24T05:57:34;18.67;;;16.73;;
10414;SDS011;5254;47.696;9.138;2022-07-24T05:59:59;16.08;;;14.52;;
10414;SDS011;5254;47.696;9.138;2022-07-24T06:02:25;19.88;;;17.88;;
10414;SDS011;5254;47.696;9.138;2022-07-24T06:04:51;18.88;;;16.90;;
10414;SDS011;5254;47.696;9.138;2022-07-24T06:07:17;15.30;;;13.90;;
10414;SDS011;5254;47.696;9.138;2022-07-24T06:09:42;18.88;;;17.08;;
10414;SDS011;5254;47.696;9.138;2022-07-24T06:12:08;15.88;;;14.23;;
10414;SDS011;5254;47.696;9.138;2022-07-24T06:14:34;18.02;;;16.17;;
10414;SDS011;5254;47.696;9.138;2022-07-24T06:17:00;15.55;;;14.00;;
10414;SDS011;5254;47.696;9.138;2022-07-24T06:19:26;17.52;;;15.73;;
10414;SDS011;5254;47.696;9.138;2022-07-24T06:21:52;14.48;;;13.07;;
10414;SDS011;5254;47.696;9.138;2022-07-24T06:24:18;17.67;;;15.88;;
10414;SDS011;5254;47.696;9.138;2022-07-24T06:26:44;14.73;;;13.23;;
10414;SDS011;5254;47.696;9.138;2022-07-24T06:29:11;18.52;;;16.35;;
10414;SDS011;5254;47.696;9.138;2022-07-24T06:31:37;14.45;;;13.07;;
10414;SDS011;5254;47.696;9.138;2022-07-24T06:34:03;16.67;;;15.05;;
10414;SDS011;5254;47.696;9.138;2022-07-24T06:36:28;14.73;;;13.38;;
10414;SDS011;5254;47.696;9.138;2022-07-24T06:38:54;18.23;;;16.42;;
10414;SDS011;5254;47.696;9.138;2022-07-24T06:41:20;14.57;;;13.20;;
10414;SDS011;5254;47.696;9.138;2022-07-24T06:44:02;18.10;;;16.30;;
10414;SDS011;5254;47.696;9.138;2022-07-24T06:46:28;14.07;;;12.77;;
10414;SDS011;5254;47.696;9.138;2022-07-24T06:48:54;18.02;;;16.13;;
10414;SDS011;5254;47.696;9.138;2022-07-24T06:51:19;15.52;;;13.98;;
10414;SDS011;5254;47.696;9.138;2022-07-24T06:53:45;17.85;;;16.17;;
10414;SDS011;5254;47.696;9.138;2022-07-24T06:56:12;13.90;;;12.60;;
10414;SDS011;5254;47.696;9.138;2022-07-24T06:58:37;17.92;;;16.17;;
10414;SDS011;5254;47.696;9.138;2022-07-24T07:01:03;13.82;;;12.48;;
10414;SDS011;5254;47.696;9.138;2022-07-24T07:03:30;16.60;;;14.90;;
10414;SDS011;5254;47.696;9.138;2022-07-24T07:05:55;13.90;;;12.68;;
10414;SDS011;5254;47.696;9.138;2022-07-24T07:08:21;14.35;;;12.98;;
10414;SDS011;5254;47.696;9.138;2022-07-24T07:10:47;17.23;;;15.40;;
10414;SDS011;5254;47.696;9.138;2022-07-24T07:13:14;13.95;;;12.65;;
10414;SDS011;5254;47.696;9.138;2022-07-24T07:15:40;16.75;;;14.90;;
10414;SDS011;5254;47.696;9.138;2022-07-24T07:18:05;14.02;;;12.73;;
10414;SDS011;5254;47.696;9.138;2022-07-24T07:20:31;14.02;;;12.70;;
10414;SDS011;5254;47.696;9.138;2022-07-24T07:22:57;16.50;;;14.90;;
10414;SDS011;5254;47.696;9.138;2022-07-24T07:25:24;14.30;;;12.70;;
10414;SDS011;5254;47.696;9.138;2022-07-24T07:27:50;15.77;;;14.27;;
10414;SDS011;5254;47.696;9.138;2022-07-24T07:30:16;14.13;;;12.77;;
10414;SDS011;5254;47.696;9.138;2022-07-24T07:32:42;14.18;;;12.98;;
10414;SDS011;5254;47.696;9.138;2022-07-24T07:35:08;17.15;;;15.55;;
10414;SDS011;5254;47.696;9.138;2022-07-24T07:37:34;14.45;;;13.05;;
10414;SDS011;5254;47.696;9.138;2022-07-24T07:40:00;15.88;;;14.38;;
10414;SDS011;5254;47.696;9.138;2022-07-24T07:42:28;13.90;;;12.57;;
10414;SDS011;5254;47.696;9.138;2022-07-24T07:44:54;16.15;;;14.55;;
10414;SDS011;5254;47.696;9.138;2022-07-24T07:47:19;13.27;;;11.98;;
10414;SDS011;5254;47.696;9.138;2022-07-24T07:49:45;14.77;;;13.38;;
10414;SDS011;5254;47.696;9.138;2022-07-24T07:52:10;12.68;;;11.38;;
10414;SDS011;5254;47.696;9.138;2022-07-24T07:54:36;15.35;;;13.75;;
10414;SDS011;5254;47.696;9.138;2022-07-24T07:57:02;13.07;;;11.88;;
10414;SDS011;5254;47.696;9.138;2022-07-24T07:59:28;14.98;;;13.43;;
10414;SDS011;5254;47.696;9.138;2022-07-24T08:01:54;12.15;;;11.02;;
10414;SDS011;5254;47.696;9.138;2022-07-24T08:04:19;14.23;;;12.93;;
10414;SDS011;5254;47.696;9.138;2022-07-24T08:06:45;12.00;;;10.85;;
10414;SDS011;5254;47.696;9.138;2022-07-24T08:09:11;14.25;;;12.95;;
10414;SDS011;5254;47.696;9.138;2022-07-24T08:11:36;12.13;;;11.02;;
10414;SDS011;5254;47.696;9.138;2022-07-24T08:14:02;14.80;;;13.40;;
10414;SDS011;5254;47.696;9.138;2022-07-24T08:16:31;12.13;;;10.98;;
10414;SDS011;5254;47.696;9.138;2022-07-24T08:18:57;14.52;;;13.02;;
10414;SDS011;5254;47.696;9.138;2022-07-24T08:21:23;13.57;;;12.18;;
10414;SDS011;5254;47.696;9.138;2022-07-24T08:23:48;11.25;;;10.25;;
10414;SDS011;5254;47.696;9.138;2022-07-24T08:26:14;15.10;;;13.65;;
10414;SDS011;5254;47.696;9.138;2022-07-24T08:28:40;12.07;;;10.98;;
10414;SDS011;5254;47.696;9.138;2022-07-24T08:31:06;14.63;;;13.15;;
10414;SDS011;5254;47.696;9.138;2022-07-24T08:33:31;12.18;;;11.07;;
10414;SDS011;5254;47.696;9.138;2022-07-24T08:35:57;14.18;;;12.88;;
10414;SDS011;5254;47.696;9.138;2022-07-24T08:38:23;12.15;;;10.70;;
10414;SDS011;5254;47.696;9.138;2022-07-24T08:40:49;14.00;;;12.60;;
10414;SDS011;5254;47.696;9.138;2022-07-24T08:43:15;12.07;;;10.88;;
10414;SDS011;5254;47.696;9.138;2022-07-24T08:45:42;13.35;;;12.05;;
10414;SDS011;5254;47.696;9.138;2022-07-24T08:48:09;10.27;;;9.20;;
10414;SDS011;5254;47.696;9.138;2022-07-24T08:50:37;12.75;;;11.45;;
10414;SDS011;5254;47.696;9.138;2022-07-24T08:53:04;10.85;;;9.85;;
10414;SDS011;5254;47.696;9.138;2022-07-24T08:55:30;14.02;;;12.07;;
10414;SDS011;5254;47.696;9.138;2022-07-24T08:57:57;11.50;;;10.40;;
10414;SDS011;5254;47.696;9.138;2022-07-24T09:00:25;13.45;;;12.05;;
10414;SDS011;5254;47.696;9.138;2022-07-24T09:02:52;11.25;;;10.25;;
10414;SDS011;5254;47.696;9.138;2022-07-24T09:05:18;13.63;;;12.23;;
10414;SDS011;5254;47.696;9.138;2022-07-24T09:07:44;11.57;;;9.50;;
10414;SDS011;5254;47.696;9.138;2022-07-24T09:10:16;13.77;;;12.38;;
10414;SDS011;5254;47.696;9.138;2022-07-24T09:12:44;11.07;;;9.98;;
10414;SDS011;5254;47.696;9.138;2022-07-24T09:15:18;13.70;;;12.40;;
10414;SDS011;5254;47.696;9.138;2022-07-24T09:17:50;11.40;;;10.40;;
10414;SDS011;5254;47.696;9.138;2022-07-24T09:20:17;14.05;;;12.65;;
10414;SDS011;5254;47.696;9.138;2022-07-24T09:22:43;11.30;;;10.20;;
10414;SDS011;5254;47.696;9.138;2022-07-24T09:27:45;11.00;;;10.10;;
10414;SDS011;5254;47.696;9.138;2022-07-24T09:30:23;14.23;;;12.82;;
10414;SDS011;5254;47.696;9.138;2022-07-24T09:35:29;13.98;;;12.57;;
10414;SDS011;5254;47.696;9.138;2022-07-24T09:37:57;11.00;;;9.90;;
10414;SDS011;5254;47.696;9.138;2022-07-24T09:40:33;13.75;;;12.35;;
10414;SDS011;5254;47.696;9.138;2022-07-24T09:43:14;11.10;;;10.05;;
10414;SDS011;5254;47.696;9.138;2022-07-24T09:45:54;14.23;;;11.75;;
10414;SDS011;5254;47.696;9.138;2022-07-24T09:48:33;11.45;;;10.45;;
10414;SDS011;5254;47.696;9.138;2022-07-24T09:51:16;11.63;;;10.52;;
10414;SDS011;5254;47.696;9.138;2022-07-24T09:53:46;14.10;;;12.70;;
10414;SDS011;5254;47.696;9.138;2022-07-24T09:56:17;11.10;;;10.10;;
10414;SDS011;5254;47.696;9.138;2022-07-24T09:58:49;11.25;;;10.20;;
10414;SDS011;5254;47.696;9.138;2022-07-24T10:01:21;12.93;;;11.65;;
10414;SDS011;5254;47.696;9.138;2022-07-24T10:03:49;11.60;;;10.52;;
10414;SDS011;5254;47.696;9.138;2022-07-24T10:06:19;13.38;;;12.00;;
10414;SDS011;5254;47.696;9.138;2022-07-24T10:08:47;10.98;;;9.93;;
10414;SDS011;5254;47.696;9.138;2022-07-24T10:11:14;12.75;;;11.57;;
10414;SDS011;5254;47.696;9.138;2022-07-24T10:13:41;10.05;;;9.05;;
10414;SDS011;5254;47.696;9.138;2022-07-24T10:18:50;11.40;;;10.20;;
10414;SDS011;5254;47.696;9.138;2022-07-24T10:21:28;10.38;;;9.38;;
10414;SDS011;5254;47.696;9.138;2022-07-24T10:29:07;10.18;;;9.15;;
10414;SDS011;5254;47.696;9.138;2022-07-24T10:31:59;11.57;;;10.45;;
10414;SDS011;5254;47.696;9.138;2022-07-24T10:34:47;10.20;;;9.23;;
10414;SDS011;5254;47.696;9.138;2022-07-24T10:45:37;10.85;;;9.73;;
10414;SDS011;5254;47.696;9.138;2022-07-24T10:51:17;11.90;;;10.70;;
10414;SDS011;5254;47.696;9.138;2022-07-24T10:53:45;10.18;;;9.18;;
10414;SDS011;5254;47.696;9.138;2022-07-24T11:01:31;9.73;;;8.82;;
10414;SDS011;5254;47.696;9.138;2022-07-24T11:06:51;11.38;;;10.32;;
10414;SDS011;5254;47.696;9.138;2022-07-24T11:09:17;9.90;;;8.88;;
10414;SDS011;5254;47.696;9.138;2022-07-24T11:12:06;10.50;;;8.60;;
10414;SDS011;5254;47.696;9.138;2022-07-24T11:20:12;10.73;;;9.63;;
10414;SDS011;5254;47.696;9.138;2022-07-24T11:22:52;9.65;;;7.55;;
10414;SDS011;5254;47.696;9.138;2022-07-24T11:25:23;11.73;;;9.82;;
10414;SDS011;5254;47.696;9.138;2022-07-24T11:27:51;9.05;;;8.20;;
10414;SDS011;5254;47.696;9.138;2022-07-24T11:30:23;8.45;;;7.65;;
10414;SDS011;5254;47.696;9.138;2022-07-24T11:32:53;10.00;;;9.07;;
10414;SDS011;5254;47.696;9.138;2022-07-24T11:38:11;8.93;;;8.02;;
10414;SDS011;5254;47.696;9.138;2022-07-24T11:40:39;10.63;;;9.63;;
10414;SDS011;5254;47.696;9.138;2022-07-24T11:43:05;8.73;;;7.82;;
10414;SDS011;5254;47.696;9.138;2022-07-24T11:45:32;9.85;;;8.75;;
10414;SDS011;5254;47.696;9.138;2022-07-24T11:47:57;10.75;;;9.60;;
10414;SDS011;5254;47.696;9.138;2022-07-24T11:50:24;9.40;;;8.50;;
10414;SDS011;5254;47.696;9.138;2022-07-24T11:52:51;10.27;;;9.35;;
10414;SDS011;5254;47.696;9.138;2022-07-24T11:55:18;9.07;;;8.18;;
10414;SDS011;5254;47.696;9.138;2022-07-24T11:57:49;10.02;;;9.05;;
10414;SDS011;5254;47.696;9.138;2022-07-24T12:00:20;8.38;;;7.57;;
10414;SDS011;5254;47.696;9.138;2022-07-24T12:02:49;10.05;;;8.98;;
10414;SDS011;5254;47.696;9.138;2022-07-24T12:05:26;9.05;;;8.25;;
10414;SDS011;5254;47.696;9.138;2022-07-24T12:07:52;10.52;;;9.52;;
10414;SDS011;5254;47.696;9.138;2022-07-24T12:10:21;9.50;;;8.60;;
10414;SDS011;5254;47.696;9.138;2022-07-24T12:12:48;9.05;;;8.20;;
10414;SDS011;5254;47.696;9.138;2022-07-24T12:15:16;8.68;;;7.85;;
10414;SDS011;5254;47.696;9.138;2022-07-24T12:17:58;8.80;;;7.90;;
10414;SDS011;5254;47.696;9.138;2022-07-24T12:20:27;8.90;;;8.00;;
10414;SDS011;5254;47.696;9.138;2022-07-24T12:22:57;10.75;;;9.70;;
10414;SDS011;5254;47.696;9.138;2022-07-24T12:25:24;8.82;;;7.80;;
10414;SDS011;5254;47.696;9.138;2022-07-24T12:27:50;9.68;;;8.73;;
10414;SDS011;5254;47.696;9.138;2022-07-24T12:30:29;8.80;;;7.90;;
10414;SDS011;5254;47.696;9.138;2022-07-24T12:33:04;8.70;;;7.90;;
10414;SDS011;5254;47.696;9.138;2022-07-24T12:35:33;8.75;;;7.90;;
10414;SDS011;5254;47.696;9.138;2022-07-24T12:38:27;8.65;;;7.80;;
10414;SDS011;5254;47.696;9.138;2022-07-24T12:41:01;10.27;;;8.60;;
10414;SDS011;5254;47.696;9.138;2022-07-24T12:43:32;8.80;;;6.95;;
10414;SDS011;5254;47.696;9.138;2022-07-24T12:46:08;9.02;;;8.13;;
10414;SDS011;5254;47.696;9.138;2022-07-24T12:48:35;7.93;;;7.00;;
10414;SDS011;5254;47.696;9.138;2022-07-24T12:53:35;8.30;;;7.43;;
10414;SDS011;5254;47.696;9.138;2022-07-24T12:56:07;8.27;;;7.47;;
10414;SDS011;5254;47.696;9.138;2022-07-24T13:01:49;8.57;;;7.78;;
10414;SDS011;5254;47.696;9.138;2022-07-24T13:04:18;8.68;;;7.85;;
10414;SDS011;5254;47.696;9.138;2022-07-24T13:06:46;9.98;;;8.95;;
10414;SDS011;5254;47.696;9.138;2022-07-24T13:09:14;8.35;;;7.43;;
10414;SDS011;5254;47.696;9.138;2022-07-24T13:11:41;9.77;;;8.40;;
10414;SDS011;5254;47.696;9.138;2022-07-24T13:14:16;8.45;;;7.65;;
10414;SDS011;5254;47.696;9.138;2022-07-24T13:16:44;10.38;;;9.30;;
10414;SDS011;5254;47.696;9.138;2022-07-24T13:19:13;8.88;;;7.97;;
10414;SDS011;5254;47.696;9.138;2022-07-24T13:21:39;8.90;;;8.00;;
10414;SDS011;5254;47.696;9.138;2022-07-24T13:24:07;8.80;;;7.93;;
10414;SDS011;5254;47.696;9.138;2022-07-24T13:26:35;9.38;;;8.30;;
10414;SDS011;5254;47.696;9.138;2022-07-24T13:29:02;8.07;;;7.15;;
10414;SDS011;5254;47.696;9.138;2022-07-24T13:31:29;8.02;;;7.22;;
10414;SDS011;5254;47.696;9.138;2022-07-24T13:33:55;8.20;;;7.40;;
10414;SDS011;5254;47.696;9.138;2022-07-24T13:36:21;10.30;;;7.78;;
10414;SDS011;5254;47.696;9.138;2022-07-24T13:38:48;8.75;;;7.90;;
10414;SDS011;5254;47.696;9.138;2022-07-24T13:41:16;8.68;;;7.88;;
10414;SDS011;5254;47.696;9.138;2022-07-24T13:43:45;8.57;;;7.65;;
10414;SDS011;5254;47.696;9.138;2022-07-24T13:46:12;8.68;;;7.50;;
10414;SDS011;5254;47.696;9.138;2022-07-24T13:48:42;9.63;;;8.70;;
10414;SDS011;5254;47.696;9.138;2022-07-24T13:51:10;7.57;;;6.50;;
10414;SDS011;5254;47.696;9.138;2022-07-24T13:53:37;7.47;;;6.78;;
10414;SDS011;5254;47.696;9.138;2022-07-24T13:56:05;11.35;;;6.75;;
10414;SDS011;5254;47.696;9.138;2022-07-24T13:58:32;7.68;;;6.88;;
10414;SDS011;5254;47.696;9.138;2022-07-24T14:01:03;9.20;;;8.30;;
10414;SDS011;5254;47.696;9.138;2022-07-24T14:03:32;8.20;;;7.50;;
10414;SDS011;5254;47.696;9.138;2022-07-24T14:05:59;8.50;;;7.63;;
10414;SDS011;5254;47.696;9.138;2022-07-24T14:08:28;8.07;;;7.20;;
10414;SDS011;5254;47.696;9.138;2022-07-24T14:10:54;7.40;;;6.60;;
10414;SDS011;5254;47.696;9.138;2022-07-24T14:13:20;8.10;;;7.30;;
10414;SDS011;5254;47.696;9.138;2022-07-24T14:15:46;7.57;;;6.88;;
10414;SDS011;5254;47.696;9.138;2022-07-24T14:18:12;8.27;;;6.82;;
10414;SDS011;5254;47.696;9.138;2022-07-24T14:20:39;7.57;;;6.72;;
10414;SDS011;5254;47.696;9.138;2022-07-24T14:23:04;7.95;;;7.13;;
10414;SDS011;5254;47.696;9.138;2022-07-24T14:25:35;7.80;;;7.00;;
10414;SDS011;5254;47.696;9.138;2022-07-24T14:28:00;9.35;;;8.35;;
10414;SDS011;5254;47.696;9.138;2022-07-24T14:30:26;8.20;;;6.85;;
10414;SDS011;5254;47.696;9.138;2022-07-24T14:32:52;8.88;;;7.97;;
10414;SDS011;5254;47.696;9.138;2022-07-24T14:35:19;10.10;;;7.43;;
10414;SDS011;5254;47.696;9.138;2022-07-24T14:37:44;8.07;;;7.28;;
10414;SDS011;5254;47.696;9.138;2022-07-24T14:40:10;7.93;;;7.10;;
10414;SDS011;5254;47.696;9.138;2022-07-24T14:42:36;8.45;;;7.20;;
10414;SDS011;5254;47.696;9.138;2022-07-24T14:45:03;10.07;;;9.07;;
10414;SDS011;5254;47.696;9.138;2022-07-24T14:47:30;9.40;;;7.85;;
10414;SDS011;5254;47.696;9.138;2022-07-24T14:49:57;10.52;;;9.52;;
10414;SDS011;5254;47.696;9.138;2022-07-24T14:52:22;9.13;;;8.27;;
10414;SDS011;5254;47.696;9.138;2022-07-24T14:54:49;10.90;;;9.85;;
10414;SDS011;5254;47.696;9.138;2022-07-24T14:57:15;9.02;;;8.13;;
10414;SDS011;5254;47.696;9.138;2022-07-24T14:59:42;10.23;;;9.23;;
10414;SDS011;5254;47.696;9.138;2022-07-24T15:02:14;8.88;;;8.05;;
10414;SDS011;5254;47.696;9.138;2022-07-24T15:04:41;8.82;;;8.02;;
10414;SDS011;5254;47.696;9.138;2022-07-24T15:09:37;9.30;;;8.40;;
10414;SDS011;5254;47.696;9.138;2022-07-24T15:12:03;9.13;;;8.18;;
10414;SDS011;5254;47.696;9.138;2022-07-24T15:14:30;9.40;;;8.27;;
10414;SDS011;5254;47.696;9.138;2022-07-24T15:16:57;9.18;;;8.35;;
10414;SDS011;5254;47.696;9.138;2022-07-24T15:19:22;10.98;;;9.88;;
10414;SDS011;5254;47.696;9.138;2022-07-24T15:21:48;8.35;;;7.53;;
10414;SDS011;5254;47.696;9.138;2022-07-24T15:24:16;9.20;;;8.32;;
10414;SDS011;5254;47.696;9.138;2022-07-24T15:26:57;9.75;;;8.75;;
10414;SDS011;5254;47.696;9.138;2022-07-24T15:29:23;9.20;;;8.30;;
10414;SDS011;5254;47.696;9.138;2022-07-24T15:31:52;8.30;;;7.50;;